Time;durP1;ratioP1;P1;durP2;ratioP2;P2;SDS_P1;SDS_P2;PMS_P1;PMS_P2;Temp;Humidity;BMP_temperature;BMP_pressure;BME280_temperature;BME280_humidity;BME280_pressure;Samples;Min_cycle;Max_cycle;Signal;HPM_P1;HPM_P2
2021/11/13 00:00:03;;;;;;;155.47;38.50;;;4.20;99.90;;;;;;5130358;27;20211;-70
2021/11/13 00:02:51;;;;;;;158.17;38.67;;;4.20;99.90;;;;;;5129942;27;20582;-69
2021/11/13 00:05:39;;;;;;;190.03;38.20;;;4.20;99.90;;;;;;5130442;27;20194;-69
2021/11/13 00:08:28;;;;;;;175.10;37.97;;;4.20;99.90;;;;;;5130310;27;20194;-69
2021/11/13 00:11:15;;;;;;;211.47;39.67;;;4.20;99.90;;;;;;5130102;27;20199;-69
2021/11/13 00:14:03;;;;;;;197.37;38.30;;;4.20;99.90;;;;;;5129226;27;20777;-69
2021/11/13 00:16:51;;;;;;;181.77;37.10;;;4.20;99.90;;;;;;5130020;27;20697;-70
2021/11/13 00:19:39;;;;;;;198.17;41.10;;;4.20;99.90;;;;;;5129239;27;20199;-69
2021/11/13 00:22:28;;;;;;;188.60;37.13;;;4.20;99.90;;;;;;5129624;27;20194;-69
2021/11/13 00:25:17;;;;;;;204.07;37.70;;;4.20;99.90;;;;;;5130144;27;20208;-70
2021/11/13 00:28:05;;;;;;;173.40;38.10;;;4.20;99.90;;;;;;5130053;27;20673;-70
2021/11/13 00:30:52;;;;;;;206.80;38.60;;;4.20;99.90;;;;;;5129127;27;20206;-69
2021/11/13 00:33:40;;;;;;;260.83;36.97;;;4.20;99.90;;;;;;5129876;27;20230;-69
2021/11/13 00:36:27;;;;;;;250.93;38.30;;;4.20;99.90;;;;;;5130717;28;20214;-69
2021/11/13 00:39:15;;;;;;;201.43;34.77;;;4.20;99.90;;;;;;5130589;28;20202;-70
2021/11/13 00:42:05;;;;;;;501.77;39.93;;;4.20;99.90;;;;;;5129838;28;20213;-70
2021/11/13 00:44:52;;;;;;;266.83;36.17;;;4.10;99.90;;;;;;5129394;28;20194;-69
2021/11/13 00:47:40;;;;;;;274.73;37.83;;;4.10;99.90;;;;;;5129794;28;20198;-69
2021/11/13 00:50:27;;;;;;;297.50;37.33;;;4.10;99.90;;;;;;5134733;27;20577;-69
2021/11/13 00:53:16;;;;;;;440.47;37.43;;;4.20;99.90;;;;;;5134175;27;20202;-70
2021/11/13 00:56:04;;;;;;;270.40;37.27;;;4.10;99.90;;;;;;5132980;27;20233;-70
2021/11/13 00:58:53;;;;;;;270.30;37.27;;;4.10;99.90;;;;;;5133156;27;20198;-69
2021/11/13 01:01:41;;;;;;;437.60;38.90;;;4.10;99.90;;;;;;5134411;27;20777;-69
2021/11/13 01:04:28;;;;;;;314.63;37.17;;;4.10;99.90;;;;;;5133456;27;20661;-69
2021/11/13 01:07:16;;;;;;;314.03;34.97;;;4.10;99.90;;;;;;5132638;27;20233;-70
2021/11/13 01:10:04;;;;;;;389.00;37.27;;;4.10;99.90;;;;;;5133249;27;20202;-69
2021/11/13 01:12:51;;;;;;;364.13;35.30;;;4.10;99.90;;;;;;5133793;27;20206;-70
2021/11/13 01:15:40;;;;;;;264.17;36.27;;;4.10;99.90;;;;;;5133195;27;20198;-69
2021/11/13 01:18:28;;;;;;;335.90;38.37;;;4.10;99.90;;;;;;5133005;27;20214;-70
2021/11/13 01:21:16;;;;;;;225.27;35.30;;;4.10;99.90;;;;;;5133457;27;20195;-69
2021/11/13 01:24:03;;;;;;;248.37;36.93;;;4.10;99.90;;;;;;5133655;27;20215;-70
2021/11/13 01:26:51;;;;;;;273.87;33.83;;;4.10;99.90;;;;;;5133372;27;20315;-70
2021/11/13 01:29:39;;;;;;;282.23;34.63;;;4.10;99.90;;;;;;5133352;27;20206;-70
2021/11/13 01:32:28;;;;;;;359.20;34.87;;;4.10;99.90;;;;;;5133466;27;20249;-69
2021/11/13 01:35:16;;;;;;;283.17;33.53;;;4.00;99.90;;;;;;5132629;27;20202;-69
2021/11/13 01:38:03;;;;;;;290.83;34.33;;;4.00;99.90;;;;;;5133530;27;20229;-69
2021/11/13 01:40:51;;;;;;;254.23;33.50;;;4.00;99.90;;;;;;5133202;27;20194;-69
2021/11/13 01:43:40;;;;;;;262.27;32.37;;;4.00;99.90;;;;;;5133096;27;20194;-69
2021/11/13 01:46:27;;;;;;;239.83;33.17;;;4.00;99.90;;;;;;5132254;27;20203;-70
2021/11/13 01:49:16;;;;;;;225.73;30.13;;;3.90;99.90;;;;;;5132582;27;20665;-69
2021/11/13 01:52:09;;;;;;;188.40;30.67;;;3.90;99.90;;;;;;5132420;27;20340;-70
2021/11/13 01:54:56;;;;;;;233.57;31.40;;;3.90;99.90;;;;;;5131948;27;20226;-69
2021/11/13 01:57:47;;;;;;;262.70;32.53;;;3.90;99.90;;;;;;5132826;27;20302;-69
2021/11/13 02:00:37;;;;;;;206.00;32.10;;;3.90;99.90;;;;;;5132104;27;20202;-69
2021/11/13 02:03:24;;;;;;;253.93;30.63;;;3.90;99.90;;;;;;5132592;27;20206;-69
2021/11/13 02:06:14;;;;;;;255.20;32.00;;;3.80;99.90;;;;;;5132352;27;20198;-69
2021/11/13 02:09:02;;;;;;;264.07;32.37;;;3.80;99.90;;;;;;5132095;27;20206;-69
2021/11/13 02:11:50;;;;;;;327.80;33.90;;;3.90;99.90;;;;;;5131990;27;20195;-70
2021/11/13 02:14:37;;;;;;;227.13;33.87;;;3.90;99.90;;;;;;5132337;27;20198;-69
2021/11/13 02:17:25;;;;;;;251.90;33.93;;;3.80;99.90;;;;;;5131528;27;20601;-69
2021/11/13 02:20:32;;;;;;;271.07;33.27;;;3.80;99.90;;;;;;5132196;27;20291;-69
2021/11/13 02:23:21;;;;;;;316.50;32.07;;;3.90;99.90;;;;;;5131238;27;20661;-69
2021/11/13 02:26:08;;;;;;;511.00;34.73;;;3.80;99.90;;;;;;5132040;27;20242;-69
2021/11/13 02:28:56;;;;;;;358.00;33.53;;;3.80;99.90;;;;;;5131760;27;20277;-69
2021/11/13 02:31:46;;;;;;;374.97;33.13;;;3.80;99.90;;;;;;5131373;27;20225;-69
2021/11/13 02:34:33;;;;;;;316.87;30.93;;;3.80;99.90;;;;;;5131236;27;20258;-69
2021/11/13 02:37:27;;;;;;;517.93;35.60;;;3.80;99.90;;;;;;5132009;27;20221;-69
2021/11/13 02:40:14;;;;;;;507.20;34.00;;;3.80;99.90;;;;;;5131577;27;20213;-69
2021/11/13 02:43:02;;;;;;;382.10;32.60;;;3.70;99.90;;;;;;5131987;27;20198;-69
2021/11/13 02:45:50;;;;;;;391.53;36.47;;;3.70;99.90;;;;;;5131385;27;20270;-70
2021/11/13 02:48:38;;;;;;;330.57;35.40;;;3.80;99.90;;;;;;5131037;27;20680;-70
2021/11/13 02:51:26;;;;;;;419.17;34.63;;;3.80;99.90;;;;;;5131814;27;20194;-70
2021/11/13 02:54:15;;;;;;;569.27;37.17;;;3.80;99.90;;;;;;5132245;27;20202;-69
2021/11/13 02:57:03;;;;;;;345.53;34.23;;;3.80;99.90;;;;;;5131003;27;20254;-69
2021/11/13 02:59:51;;;;;;;368.27;34.47;;;3.80;99.90;;;;;;5130421;27;20190;-69
2021/11/13 03:02:38;;;;;;;334.80;30.67;;;3.80;99.90;;;;;;5131316;27;20279;-69
2021/11/13 03:05:27;;;;;;;307.53;30.37;;;3.80;99.90;;;;;;5130539;27;20202;-70
2021/11/13 03:08:18;;;;;;;355.97;31.37;;;3.80;99.90;;;;;;5130709;27;20202;-69
2021/11/13 03:11:09;;;;;;;603.97;36.20;;;3.70;99.90;;;;;;5131378;27;20294;-69
2021/11/13 03:14:00;;;;;;;347.00;32.10;;;3.70;99.90;;;;;;5129503;27;20198;-69
2021/11/13 03:16:48;;;;;;;208.13;29.87;;;3.70;99.90;;;;;;5130010;27;20194;-69
2021/11/13 03:19:35;;;;;;;270.50;30.20;;;3.70;99.90;;;;;;5130824;27;20206;-70
2021/11/13 03:22:23;;;;;;;260.57;28.87;;;3.70;99.90;;;;;;5130432;27;20588;-69
2021/11/13 03:25:13;;;;;;;202.73;29.73;;;3.70;99.90;;;;;;5130530;27;20289;-69
2021/11/13 03:28:04;;;;;;;282.83;30.37;;;3.70;99.90;;;;;;5130415;27;20195;-69
2021/11/13 03:30:52;;;;;;;396.90;31.60;;;3.70;99.90;;;;;;5130440;27;20245;-69
2021/11/13 03:33:40;;;;;;;402.00;30.47;;;3.70;99.90;;;;;;5130168;27;20594;-69
2021/11/13 03:36:28;;;;;;;330.00;30.43;;;3.60;99.90;;;;;;5129753;27;20194;-69
2021/11/13 03:39:16;;;;;;;337.13;30.00;;;3.60;99.90;;;;;;5129855;27;20195;-69
2021/11/13 03:42:04;;;;;;;273.53;28.90;;;3.60;99.90;;;;;;5129774;27;20202;-69
2021/11/13 03:44:53;;;;;;;278.17;29.80;;;3.60;99.90;;;;;;5130290;27;20202;-69
2021/11/13 03:47:40;;;;;;;246.70;29.27;;;3.60;99.90;;;;;;5130599;27;20552;-70
2021/11/13 03:50:28;;;;;;;297.17;31.90;;;3.60;99.90;;;;;;5130706;27;20251;-69
2021/11/13 03:53:16;;;;;;;347.20;32.20;;;3.50;99.90;;;;;;5130017;27;20195;-69
2021/11/13 03:56:04;;;;;;;322.03;31.63;;;3.50;99.90;;;;;;5130205;27;20218;-69
2021/11/13 03:58:51;;;;;;;327.20;32.17;;;3.60;99.90;;;;;;5129599;27;20214;-69
2021/11/13 04:01:40;;;;;;;364.73;32.03;;;3.50;99.90;;;;;;5129271;27;20201;-69
2021/11/13 04:04:28;;;;;;;394.10;30.30;;;3.60;99.90;;;;;;5130162;27;20665;-70
2021/11/13 04:07:15;;;;;;;365.10;30.27;;;3.50;99.90;;;;;;5130300;27;20687;-69
2021/11/13 04:10:04;;;;;;;390.67;29.07;;;3.60;99.90;;;;;;5129693;27;20198;-69
2021/11/13 04:12:52;;;;;;;512.40;33.47;;;3.50;99.90;;;;;;5129968;27;20202;-70
2021/11/13 04:15:39;;;;;;;531.17;32.23;;;3.50;99.90;;;;;;5129939;27;20195;-69
2021/11/13 04:18:28;;;;;;;334.07;29.27;;;3.50;99.90;;;;;;5128867;27;20246;-70
2021/11/13 04:21:16;;;;;;;314.07;27.60;;;3.50;99.90;;;;;;5130122;27;20279;-69
2021/11/13 04:24:04;;;;;;;413.37;29.30;;;3.50;99.90;;;;;;5129362;27;20668;-69
2021/11/13 04:26:51;;;;;;;452.73;31.70;;;3.50;99.90;;;;;;5129623;27;20202;-69
2021/11/13 04:29:39;;;;;;;600.10;31.87;;;3.50;99.90;;;;;;5129346;27;20197;-69
2021/11/13 04:32:29;;;;;;;541.63;31.20;;;3.60;99.90;;;;;;5129634;27;20241;-69
2021/11/13 04:35:22;;;;;;;484.70;31.40;;;3.50;99.90;;;;;;5129417;27;20226;-70
2021/11/13 04:38:09;;;;;;;534.17;34.03;;;3.50;99.90;;;;;;5129383;28;20589;-69
2021/11/13 04:40:57;;;;;;;443.20;32.40;;;3.50;99.90;;;;;;5129331;28;20199;-70
2021/11/13 04:43:44;;;;;;;413.47;29.87;;;3.50;99.90;;;;;;5129622;28;20202;-69
2021/11/13 04:46:32;;;;;;;435.27;33.83;;;3.60;99.90;;;;;;5129493;28;20197;-69
2021/11/13 04:49:20;;;;;;;421.63;30.03;;;3.60;99.90;;;;;;5129763;28;20190;-69
2021/11/13 04:52:09;;;;;;;265.40;30.23;;;3.60;99.90;;;;;;5129233;28;20573;-69
2021/11/13 04:54:56;;;;;;;234.80;29.03;;;3.60;99.90;;;;;;5129928;28;20271;-69
2021/11/13 04:57:44;;;;;;;231.23;26.97;;;3.60;99.90;;;;;;5130137;28;20759;-69
2021/11/13 05:00:32;;;;;;;245.10;27.77;;;3.60;99.90;;;;;;5129252;28;20210;-69
2021/11/13 05:03:20;;;;;;;237.80;28.97;;;3.60;99.90;;;;;;5129086;28;20205;-69
2021/11/13 05:06:07;;;;;;;350.83;29.03;;;3.60;99.90;;;;;;5129118;28;20213;-69
2021/11/13 05:08:56;;;;;;;435.37;31.07;;;3.60;99.90;;;;;;5129153;28;20205;-69
2021/11/13 05:11:44;;;;;;;213.97;26.43;;;3.60;99.90;;;;;;5129683;28;20284;-69
2021/11/13 05:14:32;;;;;;;200.63;26.50;;;3.60;99.90;;;;;;5128961;28;20619;-69
2021/11/13 05:17:20;;;;;;;203.50;25.27;;;3.60;99.90;;;;;;5128903;28;20213;-70
2021/11/13 05:20:09;;;;;;;208.30;25.53;;;3.60;99.90;;;;;;5128822;28;20229;-69
2021/11/13 05:22:57;;;;;;;274.73;26.57;;;3.60;99.90;;;;;;5128408;28;20202;-69
2021/11/13 05:25:46;;;;;;;244.93;25.13;;;3.50;99.90;;;;;;5128170;28;20209;-69
2021/11/13 05:28:34;;;;;;;190.60;24.43;;;3.50;99.90;;;;;;5128974;28;20279;-69
2021/11/13 05:31:21;;;;;;;192.27;26.33;;;3.50;99.90;;;;;;5129069;28;20248;-69
2021/11/13 05:34:09;;;;;;;148.13;27.27;;;3.50;99.90;;;;;;5128790;28;20661;-69
2021/11/13 05:36:56;;;;;;;158.70;25.60;;;3.50;99.90;;;;;;5132502;27;20224;-69
2021/11/13 05:39:44;;;;;;;444.87;29.80;;;3.50;99.90;;;;;;5133191;27;20229;-69
2021/11/13 05:42:34;;;;;;;309.23;26.93;;;3.50;99.90;;;;;;5133174;27;20201;-69
2021/11/13 05:45:21;;;;;;;243.03;25.33;;;3.50;99.90;;;;;;5132091;27;20553;-70
2021/11/13 05:48:09;;;;;;;292.87;25.40;;;3.50;99.90;;;;;;5132257;27;20326;-70
2021/11/13 05:50:57;;;;;;;441.20;29.13;;;3.50;99.90;;;;;;5132270;27;20199;-69
2021/11/13 05:53:44;;;;;;;207.43;26.90;;;3.50;99.90;;;;;;5132096;27;20328;-69
2021/11/13 05:56:32;;;;;;;317.40;27.97;;;3.50;99.90;;;;;;5132802;27;20194;-70
2021/11/13 05:59:21;;;;;;;244.90;27.13;;;3.50;99.90;;;;;;5132442;27;20229;-69
2021/11/13 06:02:08;;;;;;;240.43;26.93;;;3.50;99.90;;;;;;5132350;27;20282;-69
2021/11/13 06:04:56;;;;;;;617.33;31.07;;;3.50;99.90;;;;;;5132339;27;20517;-69
2021/11/13 06:07:44;;;;;;;450.20;27.97;;;3.50;99.90;;;;;;5132699;27;20277;-69
2021/11/13 06:10:31;;;;;;;367.27;27.27;;;3.50;99.90;;;;;;5132538;27;20191;-70
2021/11/13 06:13:19;;;;;;;422.20;27.20;;;3.60;99.90;;;;;;5132142;27;20198;-69
2021/11/13 06:16:17;;;;;;;311.27;27.40;;;3.60;99.90;;;;;;5132442;27;20209;-69
2021/11/13 06:19:04;;;;;;;356.10;28.23;;;3.50;99.90;;;;;;5131022;27;20585;-69
2021/11/13 06:21:52;;;;;;;220.37;25.87;;;3.50;99.90;;;;;;5131176;27;20205;-69
2021/11/13 06:24:40;;;;;;;225.77;24.87;;;3.50;99.90;;;;;;5131663;27;20190;-69
2021/11/13 06:27:27;;;;;;;396.43;26.90;;;3.50;99.90;;;;;;5131324;27;20282;-69
2021/11/13 06:30:15;;;;;;;319.03;26.30;;;3.50;99.90;;;;;;5131431;27;20197;-69
2021/11/13 06:33:04;;;;;;;215.50;23.77;;;3.50;99.90;;;;;;5132140;27;20335;-69
2021/11/13 06:35:52;;;;;;;162.30;23.77;;;3.60;99.90;;;;;;5131657;27;20198;-69
2021/11/13 06:38:40;;;;;;;271.27;24.77;;;3.60;99.90;;;;;;5131641;27;20246;-69
2021/11/13 06:41:29;;;;;;;152.00;22.83;;;3.60;99.90;;;;;;5131622;27;20282;-69
2021/11/13 06:44:17;;;;;;;309.07;22.53;;;3.60;99.90;;;;;;5131377;27;20214;-69
2021/11/13 06:47:05;;;;;;;378.73;24.10;;;3.60;99.90;;;;;;5111429;28;20755;-69
2021/11/13 06:49:54;;;;;;;276.70;23.03;;;3.60;99.90;;;;;;5110511;28;20672;-70
2021/11/13 06:52:41;;;;;;;110.13;22.80;;;3.60;99.90;;;;;;5110806;28;20211;-69
2021/11/13 06:55:29;;;;;;;82.80;20.17;;;3.60;99.90;;;;;;5131109;27;20724;-70
2021/11/13 06:58:17;;;;;;;205.33;22.90;;;3.60;99.90;;;;;;5131516;27;20226;-69
2021/11/13 07:01:04;;;;;;;153.93;20.73;;;3.60;99.90;;;;;;5131816;27;20748;-69
2021/11/13 07:03:52;;;;;;;140.83;21.30;;;3.70;99.90;;;;;;5131054;27;20209;-69
2021/11/13 07:06:41;;;;;;;104.53;20.80;;;3.70;99.90;;;;;;5131239;27;20203;-69
2021/11/13 07:09:28;;;;;;;112.07;21.83;;;3.70;99.90;;;;;;5132037;27;20206;-70
2021/11/13 07:12:16;;;;;;;142.50;22.90;;;3.80;99.90;;;;;;5130788;27;20203;-69
2021/11/13 07:15:05;;;;;;;117.50;22.53;;;3.80;99.90;;;;;;5131372;27;20194;-69
2021/11/13 07:17:52;;;;;;;140.80;23.30;;;3.80;99.90;;;;;;5131599;27;20199;-69
2021/11/13 07:20:40;;;;;;;115.90;21.93;;;3.80;99.90;;;;;;5130825;27;20231;-69
2021/11/13 07:23:29;;;;;;;133.57;22.20;;;3.90;99.90;;;;;;5131454;27;20217;-69
2021/11/13 07:26:17;;;;;;;124.07;22.70;;;3.90;99.90;;;;;;5130571;27;20283;-69
2021/11/13 07:29:06;;;;;;;111.67;25.00;;;3.90;99.90;;;;;;5131384;27;20206;-69
2021/11/13 07:31:54;;;;;;;111.13;26.60;;;4.00;99.90;;;;;;5129680;27;20622;-69
2021/11/13 07:34:42;;;;;;;87.50;22.17;;;4.10;99.90;;;;;;5129894;27;20351;-69
2021/11/13 07:37:29;;;;;;;116.00;22.93;;;4.10;99.90;;;;;;5130099;27;20198;-69
2021/11/13 07:40:18;;;;;;;67.83;21.90;;;4.10;99.90;;;;;;5130095;27;20263;-70
2021/11/13 07:43:10;;;;;;;109.63;22.67;;;4.20;99.90;;;;;;5130370;27;20259;-69
2021/11/13 07:46:05;;;;;;;100.30;23.87;;;4.20;99.90;;;;;;5130324;27;20214;-69
2021/11/13 07:48:53;;;;;;;116.60;23.43;;;4.20;99.90;;;;;;5130515;27;20283;-70
2021/11/13 07:51:41;;;;;;;84.00;21.80;;;4.30;99.90;;;;;;5131221;27;20210;-69
2021/11/13 07:54:32;;;;;;;95.07;22.07;;;4.30;99.90;;;;;;5130534;27;20221;-69
2021/11/13 07:57:26;;;;;;;90.97;23.57;;;4.40;99.90;;;;;;5130678;27;20234;-69
2021/11/13 08:00:21;;;;;;;68.80;23.47;;;4.50;99.90;;;;;;5129930;27;20215;-69
2021/11/13 08:03:15;;;;;;;71.13;23.07;;;4.50;99.90;;;;;;5129375;27;20207;-69
2021/11/13 08:06:06;;;;;;;70.50;21.53;;;4.70;99.90;;;;;;5129683;27;20198;-69
2021/11/13 08:08:59;;;;;;;62.57;21.47;;;4.70;99.90;;;;;;5129979;27;20740;-69
2021/11/13 08:11:47;;;;;;;61.23;21.83;;;4.80;99.90;;;;;;5129272;27;20201;-69
2021/11/13 08:14:40;;;;;;;60.77;23.63;;;4.90;99.90;;;;;;5129936;27;20247;-69
2021/11/13 08:17:31;;;;;;;60.13;22.23;;;5.00;99.90;;;;;;5130349;27;20648;-69
2021/11/13 08:20:25;;;;;;;67.73;23.90;;;5.10;99.90;;;;;;5128789;27;20218;-69
2021/11/13 08:23:19;;;;;;;51.23;20.77;;;5.20;99.90;;;;;;5129793;27;20209;-69
2021/11/13 08:26:12;;;;;;;53.47;21.63;;;5.20;99.90;;;;;;5129730;27;20205;-69
2021/11/13 08:29:03;;;;;;;54.03;21.20;;;5.30;99.90;;;;;;5129708;27;20229;-69
2021/11/13 08:32:00;;;;;;;41.33;18.70;;;5.40;99.90;;;;;;5129840;27;20194;-69
2021/11/13 08:34:49;;;;;;;46.13;19.90;;;5.60;99.90;;;;;;5129705;27;20570;-69
2021/11/13 08:37:44;;;;;;;44.60;19.67;;;5.70;99.90;;;;;;5130056;27;20210;-69
2021/11/13 08:40:35;;;;;;;38.57;17.57;;;5.90;99.90;;;;;;5129970;28;20214;-69
2021/11/13 08:43:23;;;;;;;41.77;17.60;;;6.00;99.90;;;;;;5129762;28;20206;-69
2021/11/13 08:46:10;;;;;;;40.70;17.33;;;6.00;99.90;;;;;;5129997;28;20199;-69
2021/11/13 08:49:01;;;;;;;39.53;18.53;;;6.10;99.90;;;;;;5129934;28;20575;-69
2021/11/13 08:51:49;;;;;;;42.07;19.90;;;6.30;99.90;;;;;;5129515;28;20226;-69
2021/11/13 08:54:36;;;;;;;42.50;19.40;;;6.70;99.90;;;;;;5129505;28;20237;-69
2021/11/13 08:57:24;;;;;;;42.83;19.77;;;7.10;99.90;;;;;;5129170;28;20210;-69
2021/11/13 09:00:12;;;;;;;45.50;19.50;;;7.60;99.90;;;;;;5129281;28;20714;-70
2021/11/13 09:03:14;;;;;;;43.63;20.00;;;7.80;99.90;;;;;;5129087;28;20202;-69
2021/11/13 09:06:08;;;;;;;41.90;20.00;;;7.90;99.90;;;;;;5129261;28;20200;-69
2021/11/13 09:09:03;;;;;;;49.13;20.90;;;7.90;99.90;;;;;;5129331;28;20188;-69
2021/11/13 09:12:02;;;;;;;47.20;21.23;;;7.60;1.00;;;;;;5133308;27;20213;-69
2021/11/13 09:15:02;;;;;;;43.63;20.10;;;7.50;1.00;;;;;;5133194;27;20577;-70
2021/11/13 09:17:56;;;;;;;49.53;21.30;;;7.40;1.00;;;;;;5133732;27;20212;-70
2021/11/13 09:20:47;;;;;;;48.47;21.20;;;7.30;1.00;;;;;;5133118;27;20265;-69
2021/11/13 09:23:41;;;;;;;52.07;22.47;;;7.20;1.00;;;;;;5133748;27;20690;-69
2021/11/13 09:26:33;;;;;;;49.17;23.50;;;7.50;1.00;;;;;;5132809;27;20242;-69
2021/11/13 09:29:28;;;;;;;47.63;22.13;;;7.90;1.00;;;;;;5133134;27;20204;-69
2021/11/13 09:32:23;;;;;;;50.07;21.60;;;8.20;1.00;;;;;;5132156;27;20240;-69
2021/11/13 09:35:10;;;;;;;49.83;22.63;;;8.30;1.00;;;;;;5133471;27;20217;-69
2021/11/13 09:38:06;;;;;;;52.20;23.33;;;8.10;1.00;;;;;;5132024;27;20504;-69
2021/11/13 09:41:01;;;;;;;55.27;23.13;;;8.00;1.00;;;;;;5132225;27;20212;-69
2021/11/13 09:43:54;;;;;;;53.70;22.97;;;7.90;1.00;;;;;;5132678;27;20557;-69
2021/11/13 09:46:46;;;;;;;48.80;21.87;;;7.60;1.00;;;;;;5132437;27;20619;-69
2021/11/13 09:49:39;;;;;;;53.63;23.00;;;7.50;1.00;;;;;;5132780;27;20197;-70
2021/11/13 09:52:33;;;;;;;59.93;24.43;;;7.30;1.00;;;;;;5132680;27;20203;-70
2021/11/13 09:55:26;;;;;;;63.13;24.13;;;7.10;1.00;;;;;;5132770;27;20224;-69
2021/11/13 09:58:21;;;;;;;55.90;24.60;;;6.80;1.00;;;;;;5132377;27;20203;-69
2021/11/13 10:01:18;;;;;;;62.03;25.90;;;6.60;1.00;;;;;;5132324;27;20191;-69
2021/11/13 10:04:12;;;;;;;65.77;27.70;;;6.50;1.00;;;;;;5132319;27;20202;-69
2021/11/13 10:07:00;;;;;;;76.07;30.30;;;6.40;1.00;;;;;;5132743;27;20255;-69
2021/11/13 10:09:52;;;;;;;73.73;28.00;;;6.30;1.00;;;;;;5132630;27;20728;-69
2021/11/13 10:12:47;;;;;;;65.13;27.10;;;6.30;1.00;;;;;;5132116;27;20617;-69
2021/11/13 10:15:44;;;;;;;67.57;27.07;;;6.20;1.00;;;;;;5132520;27;20582;-70
2021/11/13 10:18:37;;;;;;;76.57;30.60;;;6.20;1.00;;;;;;5132041;27;20579;-70
2021/11/13 10:21:31;;;;;;;69.97;28.60;;;6.00;1.00;;;;;;5131261;27;20759;-69
2021/11/13 10:24:20;;;;;;;73.00;25.93;;;5.90;1.00;;;;;;5131681;27;20202;-69
2021/11/13 10:27:10;;;;;;;119.80;29.20;;;6.00;1.00;;;;;;5132762;27;20203;-69
2021/11/13 10:30:01;;;;;;;65.10;26.73;;;5.90;1.00;;;;;;5132387;27;20186;-69
2021/11/13 10:32:57;;;;;;;71.10;26.13;;;5.90;1.00;;;;;;5131799;27;20233;-69
2021/11/13 10:35:46;;;;;;;73.33;27.77;;;6.00;1.00;;;;;;5131554;27;20266;-70
2021/11/13 10:38:33;;;;;;;61.80;23.90;;;6.10;1.00;;;;;;5131139;27;20604;-69
2021/11/13 10:41:21;;;;;;;89.93;27.00;;;6.10;1.00;;;;;;5132238;27;20197;-69
2021/11/13 10:44:09;;;;;;;65.83;25.73;;;6.00;1.00;;;;;;5131891;27;20689;-69
2021/11/13 10:46:57;;;;;;;77.27;26.27;;;5.90;1.00;;;;;;5132181;27;20203;-69
2021/11/13 10:49:47;;;;;;;106.33;25.50;;;5.80;1.00;;;;;;5131877;27;20200;-69
2021/11/13 10:52:35;;;;;;;72.43;26.83;;;5.70;15.80;;;;;;5131569;27;20657;-69
2021/11/13 10:55:24;;;;;;;72.67;26.60;;;5.60;28.70;;;;;;5131968;27;20335;-69
2021/11/13 10:58:29;;;;;;;74.87;28.10;;;5.70;67.40;;;;;;5131073;27;20290;-69
2021/11/13 11:01:31;;;;;;;80.10;28.17;;;5.70;76.40;;;;;;5131144;27;20673;-69
2021/11/13 11:04:20;;;;;;;90.80;31.47;;;5.70;56.50;;;;;;5130465;27;20335;-69
2021/11/13 11:07:11;;;;;;;82.53;30.87;;;5.70;69.40;;;;;;5131810;27;20214;-69
2021/11/13 11:10:08;;;;;;;87.13;28.77;;;5.80;75.60;;;;;;5130890;27;20203;-69
2021/11/13 11:12:55;;;;;;;89.97;30.20;;;5.80;63.90;;;;;;5131060;27;20318;-69
2021/11/13 11:15:43;;;;;;;95.57;32.63;;;5.80;48.60;;;;;;5130237;27;20626;-69
2021/11/13 11:18:52;;;;;;;127.93;28.97;;;5.80;37.60;;;;;;5130697;27;20202;-69
2021/11/13 11:21:48;;;;;;;88.30;28.37;;;5.70;40.90;;;;;;5130742;27;20221;-69
2021/11/13 11:24:41;;;;;;;91.47;29.00;;;5.70;32.40;;;;;;5130247;27;20691;-69
2021/11/13 11:27:30;;;;;;;103.17;28.80;;;5.60;31.80;;;;;;5131271;27;20206;-69
2021/11/13 11:30:18;;;;;;;82.07;29.40;;;5.60;55.00;;;;;;5130204;27;20250;-69
2021/11/13 11:33:09;;;;;;;85.53;28.67;;;5.50;56.40;;;;;;5129649;27;20692;-69
2021/11/13 11:35:57;;;;;;;77.53;28.10;;;5.50;74.40;;;;;;5131417;27;20213;-69
2021/11/13 11:38:44;;;;;;;106.83;30.53;;;5.60;75.00;;;;;;5130707;27;20195;-69
2021/11/13 11:41:43;;;;;;;96.37;32.00;;;5.60;77.90;;;;;;5130994;27;20221;-69
2021/11/13 11:44:31;;;;;;;96.53;31.93;;;5.60;69.80;;;;;;5130315;27;20586;-69
2021/11/13 11:47:25;;;;;;;88.37;31.57;;;5.70;81.70;;;;;;5130623;27;20278;-69
2021/11/13 11:50:25;;;;;;;75.60;27.17;;;5.70;79.80;;;;;;5131583;27;20195;-69
2021/11/13 11:53:31;;;;;;;83.60;27.73;;;5.60;59.90;;;;;;5130130;27;20198;-69
2021/11/13 11:56:34;;;;;;;79.10;28.27;;;5.70;75.90;;;;;;5129660;27;20241;-70
2021/11/13 11:59:44;;;;;;;80.37;28.30;;;5.60;71.60;;;;;;5129840;27;20198;-69
2021/11/13 12:02:44;;;;;;;83.90;29.63;;;5.70;91.10;;;;;;5129912;27;20202;-70
2021/11/13 12:05:45;;;;;;;77.40;28.30;;;5.70;74.70;;;;;;5130403;27;20199;-70
2021/11/13 12:09:09;;;;;;;84.97;29.90;;;5.70;69.50;;;;;;5130107;27;20202;-69
2021/11/13 12:12:26;;;;;;;87.90;30.73;;;5.70;86.40;;;;;;5129950;27;20193;-69
2021/11/13 12:15:26;;;;;;;86.23;29.27;;;5.70;80.80;;;;;;5130388;27;20198;-69
2021/11/13 12:18:19;;;;;;;80.83;28.73;;;5.80;86.90;;;;;;5129977;27;20769;-69
2021/11/13 12:21:17;;;;;;;87.83;30.47;;;5.70;76.90;;;;;;5129373;27;20218;-69
2021/11/13 12:24:06;;;;;;;82.13;30.30;;;5.70;81.30;;;;;;5130339;27;20203;-70
2021/11/13 12:27:00;;;;;;;84.77;29.57;;;5.80;90.80;;;;;;5129193;27;20203;-69
2021/11/13 12:29:49;;;;;;;87.90;30.27;;;5.70;94.10;;;;;;5130187;27;20195;-69
2021/11/13 12:32:38;;;;;;;91.90;32.13;;;5.80;92.60;;;;;;5128890;27;20234;-69
2021/11/13 12:35:47;;;;;;;90.53;31.87;;;5.80;81.60;;;;;;5129505;27;20208;-69
2021/11/13 12:38:36;;;;;;;88.57;31.77;;;5.80;80.80;;;;;;5129652;27;20628;-69
2021/11/13 12:41:28;;;;;;;88.13;31.57;;;5.70;76.50;;;;;;5129501;28;20221;-70
2021/11/13 12:44:29;;;;;;;87.60;32.13;;;5.70;80.00;;;;;;5129828;27;20580;-69
2021/11/13 12:47:19;;;;;;;99.17;33.70;;;5.70;82.30;;;;;;5129895;28;20206;-69
2021/11/13 12:50:08;;;;;;;105.70;35.13;;;5.70;80.30;;;;;;5130023;28;20278;-69
2021/11/13 12:52:56;;;;;;;99.50;34.17;;;5.70;89.00;;;;;;5129872;28;20687;-70
2021/11/13 12:55:45;;;;;;;87.20;30.67;;;5.70;87.60;;;;;;5129157;28;20252;-69
2021/11/13 12:58:33;;;;;;;100.43;33.30;;;5.80;88.50;;;;;;5129526;28;20583;-69
2021/11/13 13:01:26;;;;;;;92.40;33.40;;;5.70;61.20;;;;;;5129019;28;20596;-69
2021/11/13 13:04:14;;;;;;;87.20;32.07;;;5.60;76.00;;;;;;5129165;28;20197;-69
2021/11/13 13:07:03;;;;;;;90.50;31.90;;;5.60;92.50;;;;;;5129650;28;20660;-69
2021/11/13 13:09:51;;;;;;;93.03;32.37;;;5.70;97.30;;;;;;5128990;28;20587;-70
2021/11/13 13:12:40;;;;;;;99.27;33.03;;;5.60;99.90;;;;;;5128638;28;20684;-69
2021/11/13 13:15:28;;;;;;;100.40;34.23;;;5.70;97.70;;;;;;5129657;28;20202;-70
2021/11/13 13:18:17;;;;;;;92.40;32.70;;;5.70;95.90;;;;;;5128919;28;20225;-70
2021/11/13 13:21:06;;;;;;;102.93;35.93;;;5.80;96.20;;;;;;5130034;28;20607;-70
2021/11/13 13:23:55;;;;;;;99.23;34.97;;;5.80;92.90;;;;;;5128632;28;20207;-70
2021/11/13 13:26:43;;;;;;;99.77;35.97;;;5.70;79.60;;;;;;5129723;28;20206;-70
2021/11/13 13:29:31;;;;;;;105.70;37.00;;;5.70;85.20;;;;;;5128714;28;20209;-70
2021/11/13 13:32:18;;;;;;;105.73;37.67;;;5.60;91.00;;;;;;5128803;28;20227;-70
2021/11/13 13:35:08;;;;;;;98.90;36.50;;;5.60;93.00;;;;;;5129290;28;20198;-70
2021/11/13 13:37:57;;;;;;;121.17;41.37;;;5.50;99.90;;;;;;5129023;28;20207;-70
2021/11/13 13:40:47;;;;;;;110.70;36.37;;;5.50;99.90;;;;;;5128847;28;20214;-70
2021/11/13 13:43:37;;;;;;;102.70;34.63;;;5.50;99.90;;;;;;5128408;28;20669;-70
2021/11/13 13:46:30;;;;;;;109.47;35.83;;;5.50;99.90;;;;;;5129899;28;20752;-69
2021/11/13 13:49:18;;;;;;;104.93;33.43;;;5.50;99.90;;;;;;5128186;28;20573;-70
2021/11/13 13:52:08;;;;;;;98.07;32.57;;;5.40;99.90;;;;;;5128526;28;20195;-70
2021/11/13 13:54:56;;;;;;;100.10;34.53;;;5.40;99.90;;;;;;5128801;28;20225;-70
2021/11/13 13:57:55;;;;;;;102.47;35.03;;;5.30;99.90;;;;;;5131607;27;20197;-69
2021/11/13 14:00:45;;;;;;;111.77;36.03;;;5.30;99.90;;;;;;5112314;28;20219;-70
2021/11/13 14:03:33;;;;;;;113.73;37.47;;;5.30;99.90;;;;;;5133119;27;20202;-70
2021/11/13 14:06:24;;;;;;;102.40;34.17;;;5.20;99.90;;;;;;5132289;27;20206;-70
2021/11/13 14:09:13;;;;;;;111.63;34.77;;;5.10;99.90;;;;;;5133042;27;20359;-69
2021/11/13 14:12:00;;;;;;;100.33;29.20;;;5.00;99.90;;;;;;5132794;27;20202;-70
2021/11/13 14:14:49;;;;;;;112.07;36.53;;;4.90;99.90;;;;;;5132524;27;20285;-69
2021/11/13 14:17:38;;;;;;;111.93;35.37;;;4.90;99.90;;;;;;5132640;27;20271;-70
2021/11/13 14:20:26;;;;;;;115.57;36.13;;;4.90;99.90;;;;;;5131144;27;20214;-70
2021/11/13 14:23:15;;;;;;;124.70;36.47;;;4.80;99.90;;;;;;5131469;27;20582;-70
2021/11/13 14:26:04;;;;;;;111.60;34.23;;;4.80;99.90;;;;;;5131534;27;20242;-70